Nar'yan-Mar, Russia
Current Conditions -  °F | °C
As of 10:30 PM on Thursday 27 Nov 2014 (Local Time) from ULAA Reporting Station
Snow Showers Snow Showers  
Wind Chill: 24°   Ceiling: 800
Heat Index: 30°   Visibility: 4mi
Dew Point: 30°   Wind: 7mph
Humidity: 100%   Direction: 260°W
Pressure: 30.3"   Gusts: NA
Location:  67.63°N, 53.03°E
Report Text: ULAA 271930Z 26003MPS 6000 -SHSN OVC008CB M01/M01 Q1026 NOSIGRMK QFE768/1024 SC040
Loading
Personal Weather Stations






























Interactive Weather Map New forecast layout! Learn more

10-Day Weather Forecast

Advertisements
Track Severe Weather on mobile